Overview Statistics Trail Chart Weather Telemetry Raw packets
 

This is the latest recevied weather packets stored in our database for station/object WASS. If no packets are shown the sender has not sent any weather packets the latest 10 day(s).

<< 7 8 9 10 11 12 13 >>
Time Temp. Humidity Pressure Rain* Wind** Luminosity Snow
1787686678 22.22° C 99% 1013 hPa 0 mm - - -
1787684718 22.78° C 99% 1013 hPa 0 mm - - -
1787682733 22.78° C 94% 1013 hPa 0 mm - - -
1787680567 22.78° C 99% 1013 hPa 0 mm - - -
1787678600 22.78° C 99% 1013 hPa 0 mm - - -
1787676635 22.78° C 99% 1014 hPa 0 mm - - -
1787672733 23.89° C 99% 1014 hPa 0 mm - - -
1787670742 23.89° C 99% 1014 hPa 0 mm - - -
1787668760 23.89° C 99% 1014 hPa 0 mm - - -
1787666788 23.89° C 99% 1014 hPa 0 mm - - -
1787660415 25° C 94% 1013 hPa 0 mm - - -
1787656041 27.22° C 84% 1012 hPa 0 mm - - -
1787649503 28.89° C 74% 1011 hPa 0 mm - - -
1787647146 30° C 70% 1011 hPa 0 mm - - -
1787645112 31.11° C 66% 1011 hPa 0 mm - - -
1787638092 32.22° C 63% 1011 hPa 0 mm - - -
1787636024 32.22° C 67% 1011 hPa 0 mm - - -
1787634020 31.11° C 66% 1012 hPa 0 mm - - -
1787632042 32.22° C 56% 1013 hPa 0 mm - - -
1787627199 30° C 75% 1014 hPa 0 mm - - -
1787625151 28.89° C 79% 1014 hPa 0 mm - - -
1787623167 28.89° C 74% 1015 hPa 0 mm - - -
1787621188 27.22° C 89% 1015 hPa 0 mm - - -
1787619154 26.11° C 94% 1015 hPa 0 mm - - -
1787617182 25° C 94% 1014 hPa 0 mm - - -

* Rain latest hour (hover to see other rain measurements)
** Current wind speed in m/s (hover to see current wind gust speed)